Time;durP1;ratioP1;P1;durP2;ratioP2;P2;SDS_P1;SDS_P2;PMS_P1;PMS_P2;Temp;Humidity;BMP_temperature;BMP_pressure;BME280_temperature;BME280_humidity;BME280_pressure;Samples;Min_cycle;Max_cycle;Signal;HPM_P1;HPM_P2
2023/12/03 00:00:39;;;;;;;50.10;31.63;;;0.00;97.20;;;;;;5043753;28;20029;-82
2023/12/03 00:03:06;;;;;;;54.72;31.77;;;-3276.70;97.10;;;;;;5036122;28;20025;-82
2023/12/03 00:05:32;;;;;;;68.25;37.33;;;-3276.70;97.10;;;;;;5041826;28;20116;-82
2023/12/03 00:07:57;;;;;;;95.28;50.40;;;-3276.60;97.10;;;;;;5035340;28;20025;-82
2023/12/03 00:10:24;;;;;;;104.90;52.05;;;-3276.60;97.10;;;;;;5035562;28;20052;-82
2023/12/03 00:12:49;;;;;;;114.93;58.72;;;-3276.60;97.10;;;;;;5038499;28;20037;-82
2023/12/03 00:15:15;;;;;;;103.72;54.28;;;-3276.60;97.10;;;;;;5038705;28;20048;-82
2023/12/03 00:17:40;;;;;;;131.15;63.53;;;-3276.60;97.20;;;;;;5041512;28;20045;-82
2023/12/03 00:20:07;;;;;;;156.20;71.25;;;-3276.50;97.20;;;;;;5037239;28;20037;-82
2023/12/03 00:22:32;;;;;;;132.32;69.35;;;-3276.60;97.20;;;;;;5034355;28;20646;-82
2023/12/03 00:24:58;;;;;;;100.53;57.95;;;-3276.50;97.20;;;;;;5043801;28;20554;-82
2023/12/03 00:27:24;;;;;;;93.78;54.38;;;-3276.60;97.20;;;;;;5035855;28;20028;-83
2023/12/03 00:29:49;;;;;;;93.45;58.30;;;-3276.50;97.20;;;;;;5035939;28;20054;-82
2023/12/03 00:32:15;;;;;;;78.35;50.05;;;-3276.50;97.10;;;;;;5040355;28;20025;-82
2023/12/03 00:34:40;;;;;;;78.78;46.67;;;-3276.50;97.10;;;;;;5041878;28;20025;-82
2023/12/03 00:37:06;;;;;;;93.78;53.58;;;-3276.50;97.20;;;;;;5040502;28;20046;-82
2023/12/03 00:39:32;;;;;;;90.07;57.05;;;-3276.50;97.20;;;;;;5044778;28;20043;-82
2023/12/03 00:41:58;;;;;;;73.20;43.72;;;-3276.50;97.20;;;;;;5038740;28;20079;-82
2023/12/03 00:44:23;;;;;;;60.55;37.33;;;-3276.50;97.30;;;;;;5044077;28;20026;-82
2023/12/03 00:46:49;;;;;;;59.35;34.08;;;-3276.50;97.20;;;;;;5039848;28;20033;-82
2023/12/03 00:49:14;;;;;;;59.85;32.53;;;-3276.50;97.20;;;;;;5045137;28;20033;-82
2023/12/03 00:51:40;;;;;;;58.60;31.33;;;-3276.40;97.20;;;;;;5035554;28;20095;-82
2023/12/03 00:54:07;;;;;;;55.60;32.38;;;-3276.50;97.20;;;;;;5040873;28;20063;-81
2023/12/03 00:56:32;;;;;;;58.30;33.20;;;-3276.50;97.30;;;;;;5038959;28;20064;-82
2023/12/03 00:58:58;;;;;;;53.17;31.55;;;-3276.50;97.20;;;;;;5039083;28;20096;-82
2023/12/03 01:01:25;;;;;;;55.58;31.50;;;-3276.50;97.30;;;;;;5033815;28;20029;-82
2023/12/03 01:03:50;;;;;;;58.20;32.60;;;-3276.50;97.30;;;;;;5036113;28;20037;-81
2023/12/03 01:06:16;;;;;;;60.33;33.38;;;-3276.50;97.20;;;;;;5034705;28;20104;-82
2023/12/03 01:08:41;;;;;;;53.92;31.42;;;-3276.50;97.20;;;;;;5032705;28;20045;-82
2023/12/03 01:11:07;;;;;;;55.45;33.08;;;-3276.50;97.20;;;;;;5035997;28;20061;-82
2023/12/03 01:13:33;;;;;;;56.95;31.85;;;-3276.50;97.10;;;;;;5042660;28;20045;-82
2023/12/03 01:15:59;;;;;;;58.30;31.30;;;-3276.50;97.10;;;;;;5041162;28;20037;-82
2023/12/03 01:18:24;;;;;;;57.13;31.45;;;-3276.50;97.10;;;;;;5038929;28;20177;-83
2023/12/03 01:20:50;;;;;;;60.65;34.38;;;-3276.50;97.10;;;;;;5039442;28;20052;-82
2023/12/03 01:23:15;;;;;;;59.15;32.72;;;-3276.50;97.10;;;;;;5038610;28;20469;-82
2023/12/03 01:25:41;;;;;;;61.38;31.40;;;-3276.50;97.10;;;;;;5034901;28;20103;-82
2023/12/03 01:28:07;;;;;;;62.83;33.63;;;-3276.50;97.10;;;;;;5040700;28;20041;-81
2023/12/03 01:30:32;;;;;;;55.83;33.17;;;-3276.40;97.00;;;;;;5041918;28;20224;-81
2023/12/03 01:32:58;;;;;;;60.50;33.70;;;-3276.40;97.00;;;;;;5044140;28;20454;-82
2023/12/03 01:35:24;;;;;;;61.10;33.83;;;-3276.40;97.00;;;;;;5039421;28;20447;-82
2023/12/03 01:37:49;;;;;;;60.90;33.58;;;-3276.40;97.10;;;;;;5041498;28;20053;-84
2023/12/03 01:40:15;;;;;;;60.38;33.67;;;-3276.40;97.10;;;;;;5033969;28;20119;-82
2023/12/03 01:42:41;;;;;;;60.65;34.00;;;-3276.40;97.10;;;;;;5033415;28;20137;-82
2023/12/03 01:45:07;;;;;;;63.08;34.35;;;-3276.40;97.10;;;;;;5035770;28;20040;-81
2023/12/03 01:47:33;;;;;;;58.42;33.00;;;-3276.40;97.10;;;;;;5030591;28;20473;-81
2023/12/03 01:50:06;;;;;;;55.65;31.48;;;-3276.40;97.10;;;;;;5041636;28;20069;-81
2023/12/03 01:52:33;;;;;;;66.15;35.03;;;-3276.40;97.10;;;;;;5037931;28;20457;-81
2023/12/03 01:55:00;;;;;;;61.05;33.22;;;-3276.40;97.10;;;;;;5030367;28;20029;-81
2023/12/03 01:57:27;;;;;;;62.17;33.80;;;-3276.40;97.10;;;;;;5038686;28;20072;-79
2023/12/03 01:59:52;;;;;;;62.83;33.50;;;-3276.40;97.10;;;;;;5040541;28;20033;-81
2023/12/03 02:02:18;;;;;;;66.72;36.42;;;-3276.40;97.10;;;;;;5033716;28;20033;-81
2023/12/03 02:04:43;;;;;;;65.63;35.13;;;-3276.40;97.10;;;;;;5041624;28;20047;-83
2023/12/03 02:07:09;;;;;;;61.92;34.65;;;-3276.40;97.10;;;;;;5035581;28;20484;-83
2023/12/03 02:09:36;;;;;;;69.13;36.30;;;-3276.40;97.00;;;;;;5037191;28;20470;-83
2023/12/03 02:12:02;;;;;;;67.97;35.67;;;-3276.40;97.10;;;;;;5036613;28;20131;-82
2023/12/03 02:14:28;;;;;;;58.40;32.95;;;-3276.40;97.00;;;;;;5037083;28;20084;-82
2023/12/03 02:16:53;;;;;;;63.97;34.13;;;-3276.40;96.90;;;;;;5038554;28;20025;-82
2023/12/03 02:19:19;;;;;;;64.90;34.53;;;-3276.40;97.00;;;;;;5034870;28;20047;-82
2023/12/03 02:21:45;;;;;;;60.40;34.13;;;-3276.40;96.90;;;;;;5032231;28;20037;-82
2023/12/03 02:24:10;;;;;;;65.45;35.58;;;-3276.40;96.90;;;;;;5038469;28;20060;-82
2023/12/03 02:26:36;;;;;;;65.88;34.13;;;-3276.30;96.80;;;;;;5036474;28;20030;-82
2023/12/03 02:29:02;;;;;;;67.05;34.67;;;-3276.30;96.80;;;;;;5038556;28;20021;-82
2023/12/03 02:31:28;;;;;;;64.80;35.30;;;-3276.30;96.80;;;;;;5036473;28;20033;-82
2023/12/03 02:34:20;;;;;;;68.85;36.17;;;-3276.30;96.80;;;;;;5042707;28;20412;-82
2023/12/03 02:36:46;;;;;;;63.88;34.42;;;-3276.30;96.80;;;;;;5055188;28;20238;-82
2023/12/03 02:39:12;;;;;;;67.45;34.97;;;-3276.30;96.80;;;;;;5064447;28;20052;-81
2023/12/03 02:41:37;;;;;;;67.18;35.47;;;-3276.30;96.80;;;;;;5048411;28;20053;-81
2023/12/03 02:44:03;;;;;;;65.22;35.00;;;-3276.30;96.90;;;;;;5055519;28;20020;-84
2023/12/03 02:46:28;;;;;;;62.83;35.08;;;-3276.30;96.90;;;;;;5044492;28;20096;-84
2023/12/03 02:48:54;;;;;;;65.47;33.78;;;-3276.30;96.80;;;;;;5038208;28;20036;-82
2023/12/03 02:51:20;;;;;;;62.47;35.70;;;-3276.30;96.90;;;;;;5040620;28;20504;-82
2023/12/03 02:53:46;;;;;;;63.42;35.22;;;-3276.30;96.80;;;;;;5040729;28;20021;-81
2023/12/03 02:56:12;;;;;;;64.07;35.90;;;-3276.30;96.80;;;;;;5031235;28;20389;-81
2023/12/03 02:58:39;;;;;;;66.40;34.90;;;-3276.30;96.80;;;;;;5035505;28;20028;-82
2023/12/03 03:01:05;;;;;;;68.05;36.03;;;-3276.30;96.80;;;;;;5038951;28;20029;-81
2023/12/03 03:03:31;;;;;;;72.78;36.88;;;-3276.30;96.80;;;;;;5037067;28;20482;-81
2023/12/03 03:05:57;;;;;;;66.95;36.00;;;-3276.30;96.80;;;;;;5032902;28;20116;-81
2023/12/03 03:08:22;;;;;;;66.10;35.63;;;-3276.30;96.80;;;;;;5033807;28;20091;-81
2023/12/03 03:10:48;;;;;;;63.88;35.22;;;-3276.30;96.80;;;;;;5041839;28;20041;-82
2023/12/03 03:13:13;;;;;;;61.70;35.42;;;-3276.30;96.80;;;;;;5036375;28;20036;-82
2023/12/03 03:15:39;;;;;;;63.75;34.35;;;-3276.30;96.80;;;;;;5042166;28;20288;-83
2023/12/03 03:18:05;;;;;;;67.22;34.13;;;-3276.30;96.80;;;;;;5040396;28;20020;-83
2023/12/03 03:20:30;;;;;;;70.45;37.05;;;-3276.30;96.70;;;;;;5042140;28;20122;-82
2023/12/03 03:22:56;;;;;;;67.20;33.97;;;-3276.30;96.70;;;;;;5047932;28;20017;-82
2023/12/03 03:25:22;;;;;;;69.25;35.83;;;-3276.30;96.70;;;;;;5049454;28;20055;-82
2023/12/03 03:27:47;;;;;;;67.57;36.65;;;-3276.30;96.70;;;;;;5052739;28;20108;-82
2023/12/03 03:30:13;;;;;;;65.82;34.33;;;-3276.30;96.70;;;;;;5047616;28;20056;-83
2023/12/03 03:32:39;;;;;;;67.95;37.38;;;-3276.30;96.70;;;;;;5047403;28;20427;-82
2023/12/03 03:35:05;;;;;;;64.05;33.67;;;-3276.30;96.70;;;;;;5040132;28;20041;-82
2023/12/03 03:37:31;;;;;;;68.90;36.05;;;-3276.40;96.60;;;;;;5041159;28;20013;-82
2023/12/03 03:39:56;;;;;;;65.38;34.38;;;-3276.30;96.60;;;;;;5038962;28;20140;-81
2023/12/03 03:42:22;;;;;;;68.97;34.75;;;-3276.40;96.60;;;;;;5033305;28;20514;-80
2023/12/03 03:44:48;;;;;;;62.25;34.22;;;-3276.40;96.60;;;;;;5032102;28;20026;-82
2023/12/03 03:47:13;;;;;;;67.75;35.33;;;-3276.40;96.50;;;;;;5040498;28;20382;-83
2023/12/03 03:49:40;;;;;;;63.70;34.45;;;-3276.40;96.50;;;;;;5039054;28;20108;-81
2023/12/03 03:52:05;;;;;;;59.90;34.13;;;-3276.40;96.50;;;;;;5037652;28;20040;-81
2023/12/03 03:54:31;;;;;;;64.47;35.05;;;-3276.40;96.40;;;;;;5033348;28;20121;-82
2023/12/03 03:56:57;;;;;;;64.47;36.00;;;-3276.40;96.30;;;;;;5038391;28;20017;-83
2023/12/03 03:59:23;;;;;;;60.30;34.00;;;-3276.40;96.30;;;;;;5042949;28;20540;-82
2023/12/03 04:01:49;;;;;;;64.82;34.10;;;-3276.40;96.30;;;;;;5037276;28;20037;-82
2023/12/03 04:04:14;;;;;;;63.00;34.25;;;-3276.50;96.20;;;;;;5038306;28;20461;-82
2023/12/03 04:06:42;;;;;;;62.58;32.55;;;-3276.50;96.10;;;;;;5046216;28;20021;-82
2023/12/03 04:09:08;;;;;;;57.25;31.63;;;-3276.50;96.00;;;;;;5042901;28;20070;-82
2023/12/03 04:11:41;;;;;;;56.83;31.45;;;-3276.60;95.90;;;;;;5041869;28;20099;-82
2023/12/03 04:14:08;;;;;;;56.85;32.55;;;-3276.60;95.70;;;;;;5032007;28;20021;-82
2023/12/03 04:16:36;;;;;;;56.63;30.42;;;-3276.50;95.60;;;;;;5043077;28;20064;-82
2023/12/03 04:19:02;;;;;;;58.17;30.83;;;-3276.60;95.50;;;;;;5038073;28;20025;-82
2023/12/03 04:21:29;;;;;;;58.60;31.63;;;-3276.60;95.40;;;;;;5037876;28;20033;-82
2023/12/03 04:23:55;;;;;;;58.42;32.38;;;-3276.60;95.30;;;;;;5038055;28;20017;-82
2023/12/03 04:26:21;;;;;;;58.97;31.40;;;-3276.60;95.20;;;;;;5037561;28;20029;-81
2023/12/03 04:28:47;;;;;;;57.45;29.42;;;-3276.60;95.00;;;;;;5035108;28;20025;-82
2023/12/03 04:31:21;;;;;;;58.00;30.92;;;-3276.60;94.90;;;;;;5033755;28;20449;-82
2023/12/03 04:33:50;;;;;;;;;;;-3276.60;94.80;;;;;;5032206;28;20013;-82
2023/12/03 04:36:17;;;;;;;55.70;28.00;;;-3276.60;94.70;;;;;;5039944;28;19958;-81
2023/12/03 04:38:43;;;;;;;54.85;28.95;;;-3276.60;94.60;;;;;;5039572;28;20029;-82
2023/12/03 04:41:08;;;;;;;58.67;29.90;;;-3276.60;94.60;;;;;;5035271;28;20079;-82
2023/12/03 04:43:34;;;;;;;54.00;27.88;;;-3276.60;94.40;;;;;;5042642;28;20272;-81
2023/12/03 04:46:07;;;;;;;53.65;28.80;;;-3276.60;94.40;;;;;;5040022;28;20135;-82
2023/12/03 04:48:34;;;;;;;54.45;29.10;;;-3276.60;94.30;;;;;;5036364;28;20120;-82
2023/12/03 04:51:00;;;;;;;55.67;31.67;;;-3276.60;94.30;;;;;;5040797;28;20028;-82
2023/12/03 04:53:26;;;;;;;55.38;30.48;;;-3276.70;94.20;;;;;;5043338;28;20082;-82
2023/12/03 04:55:52;;;;;;;54.10;29.95;;;-3276.60;94.00;;;;;;5036055;28;20041;-82
2023/12/03 04:58:17;;;;;;;57.97;30.25;;;-3276.60;94.00;;;;;;5039775;28;20039;-81
2023/12/03 05:00:43;;;;;;;54.25;29.63;;;-3276.70;94.10;;;;;;5033577;28;20044;-81
2023/12/03 05:03:09;;;;;;;53.65;29.38;;;-3276.70;94.00;;;;;;5029701;28;20179;-82
2023/12/03 05:05:34;;;;;;;50.65;27.65;;;-3276.60;93.90;;;;;;5039299;28;20320;-82
2023/12/03 05:08:00;;;;;;;52.25;29.30;;;-3276.70;93.80;;;;;;5039875;28;20037;-82
2023/12/03 05:10:26;;;;;;;47.08;27.67;;;-3276.70;93.70;;;;;;5035838;28;20091;-82
2023/12/03 05:12:52;;;;;;;49.10;27.13;;;-3276.70;93.70;;;;;;5034431;28;20017;-81
2023/12/03 05:15:17;;;;;;;48.10;26.10;;;-3276.70;93.50;;;;;;5033053;28;20029;-81
2023/12/03 05:17:43;;;;;;;50.10;25.95;;;-3276.70;93.40;;;;;;5033642;28;20079;-82
2023/12/03 05:20:09;;;;;;;50.58;27.50;;;-3276.70;93.40;;;;;;5039813;28;20021;-82
2023/12/03 05:22:35;;;;;;;52.15;27.50;;;-3276.70;93.30;;;;;;5037657;28;20487;-82
2023/12/03 05:25:01;;;;;;;46.50;25.00;;;-3276.70;93.20;;;;;;5039744;28;20056;-82
2023/12/03 05:27:26;;;;;;;45.63;26.40;;;-3276.70;93.10;;;;;;5038183;28;20484;-82
2023/12/03 05:29:52;;;;;;;44.20;25.10;;;-3276.70;93.00;;;;;;5043906;28;20334;-82
2023/12/03 05:32:18;;;;;;;43.25;25.17;;;-3276.70;92.90;;;;;;5036854;28;20066;-82
2023/12/03 05:34:47;;;;;;;46.42;24.73;;;0.00;92.80;;;;;;5039042;28;20028;-82
2023/12/03 05:37:13;;;;;;;46.55;24.58;;;-3276.70;92.70;;;;;;5039914;28;20029;-82
2023/12/03 05:39:41;;;;;;;42.95;22.77;;;0.00;92.50;;;;;;5030691;28;20052;-81
2023/12/03 05:42:07;;;;;;;43.45;23.77;;;0.00;92.40;;;;;;5033589;28;20036;-82
2023/12/03 05:44:33;;;;;;;42.72;24.20;;;0.00;92.30;;;;;;5039046;28;20426;-82
2023/12/03 05:47:00;;;;;;;42.33;22.65;;;0.00;92.10;;;;;;5040250;28;20032;-82
2023/12/03 05:49:26;;;;;;;45.88;23.33;;;0.00;91.80;;;;;;5029619;28;20030;-82
2023/12/03 05:51:52;;;;;;;42.42;22.70;;;0.00;91.70;;;;;;5032844;28;20338;-82
2023/12/03 05:54:17;;;;;;;40.85;22.98;;;0.00;91.50;;;;;;5031350;28;20017;-82
2023/12/03 05:56:45;;;;;;;41.28;24.10;;;0.10;91.50;;;;;;5041936;28;20036;-82
2023/12/03 05:59:10;;;;;;;43.30;23.23;;;0.00;91.30;;;;;;5031361;28;20037;-82
2023/12/03 06:01:36;;;;;;;38.97;21.48;;;0.00;91.20;;;;;;5042617;28;20037;-81
2023/12/03 06:04:06;;;;;;;38.30;22.35;;;0.00;91.10;;;;;;5040744;28;20044;-81
2023/12/03 06:06:33;;;;;;;36.03;20.88;;;0.10;91.10;;;;;;5030692;28;20040;-80
2023/12/03 06:08:58;;;;;;;38.35;22.45;;;0.10;90.90;;;;;;5040258;28;20047;-81
2023/12/03 06:11:24;;;;;;;40.38;21.50;;;0.10;90.70;;;;;;5032140;28;20033;-80
2023/12/03 06:13:49;;;;;;;37.85;22.45;;;0.10;90.60;;;;;;5033697;28;20021;-81
2023/12/03 06:16:15;;;;;;;35.55;19.92;;;0.10;90.60;;;;;;5031163;28;20043;-81
2023/12/03 06:18:42;;;;;;;34.72;20.27;;;0.10;90.50;;;;;;5033721;28;20083;-81
2023/12/03 06:21:08;;;;;;;38.33;21.05;;;0.10;90.50;;;;;;5032157;28;20071;-81
2023/12/03 06:23:33;;;;;;;34.55;20.45;;;0.10;90.30;;;;;;5035656;28;20471;-81
2023/12/03 06:25:59;;;;;;;37.13;19.70;;;0.10;90.10;;;;;;5033946;28;20052;-80
2023/12/03 06:28:25;;;;;;;34.78;20.67;;;0.20;89.90;;;;;;5034977;28;20056;-81
2023/12/03 06:30:51;;;;;;;35.97;20.60;;;0.20;89.80;;;;;;5037093;28;20044;-81
2023/12/03 06:33:18;;;;;;;37.65;19.35;;;0.20;89.70;;;;;;5032463;28;20036;-81
2023/12/03 06:35:45;;;;;;;32.85;19.10;;;0.20;89.60;;;;;;5039124;28;20025;-81
2023/12/03 06:38:10;;;;;;;34.03;19.63;;;0.20;89.50;;;;;;5039245;28;20373;-81
2023/12/03 06:40:36;;;;;;;32.90;20.20;;;0.20;89.40;;;;;;5030753;28;20053;-81
2023/12/03 06:43:02;;;;;;;34.70;20.25;;;0.20;89.40;;;;;;5035047;28;20437;-81
2023/12/03 06:45:27;;;;;;;31.67;18.13;;;0.20;89.30;;;;;;5034049;28;20131;-82
2023/12/03 06:47:53;;;;;;;33.85;19.20;;;0.30;89.10;;;;;;5033889;28;20029;-81
2023/12/03 06:50:19;;;;;;;40.05;23.60;;;0.30;89.10;;;;;;5037507;28;20056;-81
2023/12/03 06:52:45;;;;;;;33.25;20.85;;;0.30;88.90;;;;;;5037659;28;20055;-81
2023/12/03 06:55:12;;;;;;;33.33;19.23;;;0.30;88.70;;;;;;5033576;28;20046;-81
2023/12/03 06:57:37;;;;;;;35.13;19.02;;;0.30;88.70;;;;;;5035686;28;20020;-81
2023/12/03 07:00:06;;;;;;;34.47;20.02;;;0.40;88.70;;;;;;5034728;28;20030;-81
2023/12/03 07:02:32;;;;;;;33.85;18.95;;;0.30;88.60;;;;;;5038125;28;20030;-81
2023/12/03 07:04:57;;;;;;;34.85;19.20;;;0.30;88.50;;;;;;5034175;28;20025;-81
2023/12/03 07:07:23;;;;;;;30.50;18.48;;;0.40;88.40;;;;;;5035102;28;20025;-81
2023/12/03 07:09:49;;;;;;;35.70;19.38;;;0.40;88.20;;;;;;5031740;28;20033;-81
2023/12/03 07:12:15;;;;;;;32.67;19.27;;;0.40;88.00;;;;;;5028729;28;20418;-80
2023/12/03 07:14:40;;;;;;;31.55;17.02;;;0.40;87.80;;;;;;5033457;28;20024;-81
2023/12/03 07:17:06;;;;;;;30.67;18.90;;;0.40;87.80;;;;;;5028697;28;20052;-81
2023/12/03 07:19:32;;;;;;;34.60;19.15;;;0.50;87.80;;;;;;5040325;28;20045;-80
2023/12/03 07:21:58;;;;;;;32.10;18.38;;;0.50;87.60;;;;;;5036395;28;20036;-81
2023/12/03 07:24:23;;;;;;;32.03;18.30;;;0.50;87.40;;;;;;5028822;28;20026;-80
2023/12/03 07:26:49;;;;;;;28.27;18.42;;;0.60;87.10;;;;;;5034008;28;20180;-81
2023/12/03 07:29:17;;;;;;;30.45;17.65;;;0.60;86.90;;;;;;5039474;28;20032;-81
2023/12/03 07:31:43;;;;;;;32.08;18.40;;;0.60;86.90;;;;;;5040617;28;20033;-81
2023/12/03 07:34:09;;;;;;;29.30;16.83;;;0.60;87.00;;;;;;5038911;28;20386;-81
2023/12/03 07:36:34;;;;;;;30.33;17.25;;;0.60;86.90;;;;;;5032966;28;20042;-81
2023/12/03 07:39:01;;;;;;;26.52;15.52;;;0.60;86.80;;;;;;5035124;28;20134;-81
2023/12/03 07:41:27;;;;;;;29.45;16.95;;;0.60;86.70;;;;;;5035925;28;20071;-81
2023/12/03 07:43:52;;;;;;;28.90;17.13;;;0.60;86.60;;;;;;5034015;28;20033;-81
2023/12/03 07:46:18;;;;;;;28.65;16.92;;;0.60;86.50;;;;;;5039564;28;20041;-81
2023/12/03 07:48:46;;;;;;;33.03;17.52;;;0.60;86.50;;;;;;5036460;28;20122;-81
2023/12/03 07:51:11;;;;;;;26.00;16.52;;;0.60;86.60;;;;;;5036846;28;20095;-81
2023/12/03 07:53:39;;;;;;;28.70;17.08;;;0.60;86.60;;;;;;5036179;28;20033;-81
2023/12/03 07:56:05;;;;;;;30.80;16.77;;;0.70;86.40;;;;;;5038225;28;20339;-81
2023/12/03 07:58:30;;;;;;;29.50;15.63;;;0.70;86.40;;;;;;5039853;28;20037;-81
2023/12/03 08:00:59;;;;;;;28.88;16.50;;;0.70;86.30;;;;;;5032785;28;20304;-82
2023/12/03 08:03:25;;;;;;;33.90;17.10;;;0.70;86.10;;;;;;5042254;28;20031;-81
2023/12/03 08:05:50;;;;;;;30.10;17.60;;;0.80;86.00;;;;;;5049986;28;20120;-77
2023/12/03 08:08:16;;;;;;;28.05;15.40;;;0.80;86.00;;;;;;5064780;28;20059;-77
2023/12/03 08:10:42;;;;;;;27.17;16.52;;;0.80;85.90;;;;;;5057105;28;20033;-75
2023/12/03 08:13:07;;;;;;;28.73;16.30;;;0.80;85.90;;;;;;5046877;28;20685;-75
2023/12/03 08:15:33;;;;;;;28.10;15.90;;;0.90;86.10;;;;;;5037407;28;20075;-77
2023/12/03 08:17:59;;;;;;;27.85;15.90;;;0.90;85.80;;;;;;5044125;28;20109;-76
2023/12/03 08:20:24;;;;;;;30.85;15.68;;;0.90;85.60;;;;;;5034108;28;20423;-75
2023/12/03 08:22:50;;;;;;;26.73;15.48;;;0.90;85.60;;;;;;5034494;28;20337;-75
2023/12/03 08:25:16;;;;;;;28.52;15.65;;;0.90;85.60;;;;;;5035758;28;20041;-76
2023/12/03 08:27:42;;;;;;;29.67;16.20;;;1.00;85.50;;;;;;5036007;28;20249;-76
2023/12/03 08:30:08;;;;;;;26.75;14.48;;;0.90;85.40;;;;;;5033189;28;20071;-76
2023/12/03 08:32:34;;;;;;;30.25;14.73;;;1.00;85.40;;;;;;5044072;28;20342;-77
2023/12/03 08:34:59;;;;;;;25.80;14.93;;;1.10;85.20;;;;;;5036830;28;20043;-76
2023/12/03 08:37:25;;;;;;;26.15;13.85;;;1.00;85.00;;;;;;5039280;28;20027;-75
2023/12/03 08:39:51;;;;;;;25.65;13.60;;;1.10;85.00;;;;;;5040039;28;20049;-76
2023/12/03 08:42:18;;;;;;;25.52;14.38;;;1.10;84.90;;;;;;5044379;28;20029;-76
2023/12/03 08:44:44;;;;;;;27.52;14.38;;;1.10;84.90;;;;;;5037951;28;20035;-75
2023/12/03 08:47:09;;;;;;;26.13;14.98;;;1.10;85.00;;;;;;5030641;28;20032;-75
2023/12/03 08:49:35;;;;;;;23.95;14.15;;;1.10;84.90;;;;;;5041264;28;20122;-75
2023/12/03 08:52:00;;;;;;;27.90;15.23;;;1.10;85.00;;;;;;5037965;28;20032;-75
2023/12/03 08:54:26;;;;;;;29.40;14.82;;;1.10;84.80;;;;;;5042891;28;20059;-75
2023/12/03 08:56:52;;;;;;;25.95;13.65;;;1.20;84.80;;;;;;5041380;28;20059;-75
2023/12/03 08:59:19;;;;;;;23.98;13.73;;;1.20;84.60;;;;;;5037319;28;20033;-75
2023/12/03 09:01:45;;;;;;;24.05;14.55;;;1.20;84.60;;;;;;5034468;28;20037;-75
2023/12/03 09:04:12;;;;;;;22.92;12.27;;;1.30;84.20;;;;;;5035576;28;20025;-75
2023/12/03 09:06:39;;;;;;;32.08;16.48;;;1.40;84.00;;;;;;5044706;28;20033;-75
2023/12/03 09:09:05;;;;;;;25.08;13.88;;;1.40;84.00;;;;;;5041064;28;20108;-76
2023/12/03 09:11:31;;;;;;;24.25;13.75;;;1.50;83.70;;;;;;5042805;28;20047;-74
2023/12/03 09:13:57;;;;;;;23.67;13.30;;;1.50;83.40;;;;;;5041321;28;20078;-76
2023/12/03 09:16:22;;;;;;;24.10;13.77;;;1.60;83.40;;;;;;5036880;28;20044;-77
2023/12/03 09:18:48;;;;;;;23.90;13.73;;;1.60;83.40;;;;;;5041826;28;20036;-77
2023/12/03 09:21:13;;;;;;;24.83;14.07;;;1.60;83.30;;;;;;5042983;28;20033;-76
2023/12/03 09:23:39;;;;;;;27.05;15.93;;;1.60;83.40;;;;;;5038702;28;20029;-77
2023/12/03 09:26:05;;;;;;;26.70;15.68;;;1.60;83.20;;;;;;5039682;28;20033;-76
2023/12/03 09:28:32;;;;;;;28.60;15.45;;;1.60;83.20;;;;;;5033114;28;20063;-77
2023/12/03 09:30:58;;;;;;;28.27;15.75;;;1.60;83.30;;;;;;5031575;28;20541;-74
2023/12/03 09:33:28;;;;;;;27.33;15.20;;;1.60;83.30;;;;;;5033537;28;20041;-76
2023/12/03 09:35:56;;;;;;;54.50;29.10;;;1.60;83.60;;;;;;5032203;28;20812;-75
2023/12/03 09:38:22;;;;;;;28.70;15.38;;;1.60;83.90;;;;;;5032191;28;20033;-77
2023/12/03 09:40:48;;;;;;;61.63;35.83;;;1.50;84.00;;;;;;5043695;28;20090;-78
2023/12/03 09:43:19;;;;;;;27.33;16.63;;;1.60;84.50;;;;;;5038020;28;20025;-75
2023/12/03 09:45:46;;;;;;;38.30;24.10;;;1.60;84.80;;;;;;5036213;28;20495;-77
2023/12/03 09:48:13;;;;;;;39.65;27.08;;;1.60;85.50;;;;;;5038600;28;20029;-78
2023/12/03 09:50:42;;;;;;;28.85;15.23;;;1.60;85.70;;;;;;5039147;28;20033;-75
2023/12/03 09:53:10;;;;;;;28.17;15.43;;;1.50;86.50;;;;;;5040079;28;20718;-77
2023/12/03 09:55:38;;;;;;;32.95;16.95;;;1.50;87.00;;;;;;5034412;28;20455;-76
2023/12/03 09:58:04;;;;;;;34.83;19.52;;;1.50;87.40;;;;;;5037093;28;20013;-76
2023/12/03 10:00:31;;;;;;;33.50;17.80;;;1.60;87.80;;;;;;5037452;28;20024;-74
2023/12/03 10:02:57;;;;;;;35.60;20.35;;;1.60;88.10;;;;;;5037366;28;20028;-75
2023/12/03 10:05:22;;;;;;;35.30;20.48;;;1.60;88.00;;;;;;5039297;28;20029;-74
2023/12/03 10:07:51;;;;;;;29.25;17.73;;;1.60;87.70;;;;;;5036943;28;20513;-75
2023/12/03 10:10:19;;;;;;;29.00;17.58;;;1.60;87.60;;;;;;5034777;28;20060;-75
2023/12/03 10:12:47;;;;;;;28.13;15.73;;;1.60;87.60;;;;;;5041086;28;20436;-74
2023/12/03 10:15:13;;;;;;;25.98;15.65;;;1.70;87.70;;;;;;5039697;28;20029;-75
2023/12/03 10:17:39;;;;;;;27.50;15.38;;;1.70;87.70;;;;;;5036605;28;20234;-76
2023/12/03 10:20:35;;;;;;;27.67;15.55;;;1.70;88.10;;;;;;5038624;28;20024;-74
2023/12/03 10:23:04;;;;;;;31.48;16.92;;;1.70;88.80;;;;;;5038136;28;20039;-75
2023/12/03 10:25:36;;;;;;;25.75;15.32;;;1.70;89.10;;;;;;5044177;28;20045;-74
2023/12/03 10:28:04;;;;;;;30.80;16.45;;;1.60;89.40;;;;;;5034488;28;20033;-75
2023/12/03 10:30:30;;;;;;;27.88;15.85;;;1.60;90.10;;;;;;5038758;28;20124;-75
2023/12/03 10:32:56;;;;;;;29.25;17.33;;;1.60;90.50;;;;;;5035324;28;20025;-75
2023/12/03 10:35:23;;;;;;;35.22;17.55;;;1.60;91.00;;;;;;5033658;28;20124;-75
2023/12/03 10:37:49;;;;;;;32.92;18.95;;;1.60;91.30;;;;;;5035528;28;20033;-74
2023/12/03 10:40:16;;;;;;;30.55;16.45;;;1.60;91.60;;;;;;5030332;28;20176;-76
2023/12/03 10:42:44;;;;;;;32.25;17.65;;;1.60;91.80;;;;;;5039176;28;20289;-75
2023/12/03 10:45:10;;;;;;;30.30;17.10;;;1.60;91.90;;;;;;5035418;28;20048;-75
2023/12/03 10:47:37;;;;;;;30.45;16.83;;;1.50;92.40;;;;;;5035400;28;20058;-76
2023/12/03 10:50:07;;;;;;;28.55;16.73;;;1.60;92.40;;;;;;5035310;28;20076;-76
2023/12/03 10:52:35;;;;;;;33.92;18.38;;;1.60;92.50;;;;;;5033935;28;20029;-76
2023/12/03 10:55:02;;;;;;;33.33;18.08;;;1.60;92.70;;;;;;5027341;28;20099;-76
2023/12/03 10:57:30;;;;;;;32.67;18.38;;;1.50;92.90;;;;;;5031518;28;20497;-76
2023/12/03 11:00:10;;;;;;;31.85;18.80;;;1.30;93.10;;;;;;5037848;28;20090;-75
2023/12/03 11:02:44;;;;;;;33.50;17.67;;;1.30;93.70;;;;;;5052547;28;20451;-76
2023/12/03 11:05:18;;;;;;;32.47;17.73;;;1.30;93.90;;;;;;5039623;28;20494;-75
2023/12/03 11:07:44;;;;;;;35.65;19.13;;;1.30;93.80;;;;;;5038978;28;20036;-76
2023/12/03 11:10:12;;;;;;;31.20;17.45;;;1.30;93.80;;;;;;5039995;28;20056;-77
2023/12/03 11:12:39;;;;;;;34.67;18.25;;;1.20;93.70;;;;;;5047731;28;20032;-75
2023/12/03 11:15:08;;;;;;;33.17;18.70;;;1.30;93.70;;;;;;5030156;28;20029;-75
2023/12/03 11:17:44;;;;;;;34.60;18.73;;;1.20;93.50;;;;;;5039242;28;20849;-77
2023/12/03 11:20:27;;;;;;;37.72;19.63;;;1.20;93.50;;;;;;5033647;28;20457;-75
2023/12/03 11:23:02;;;;;;;32.78;18.10;;;1.30;93.60;;;;;;5034942;28;20463;-75
2023/12/03 11:25:31;;;;;;;;;;;1.30;93.40;;;;;;5033339;28;20421;-76
2023/12/03 11:27:57;;;;;;;37.45;19.10;;;1.30;93.40;;;;;;5035036;28;19913;-76
2023/12/03 11:30:40;;;;;;;39.00;19.65;;;1.20;93.40;;;;;;5037371;28;20494;-76
2023/12/03 11:33:19;;;;;;;32.00;17.08;;;1.30;93.50;;;;;;5040573;28;20489;-77
2023/12/03 11:35:46;;;;;;;31.15;17.52;;;1.40;93.50;;;;;;5042039;28;20025;-76
2023/12/03 11:38:21;;;;;;;33.33;18.10;;;1.30;93.50;;;;;;5037268;28;20437;-77
2023/12/03 11:40:47;;;;;;;35.47;18.63;;;1.20;93.50;;;;;;5037633;28;20099;-76
2023/12/03 11:43:26;;;;;;;34.10;18.30;;;1.30;93.70;;;;;;5045761;28;20036;-76
2023/12/03 11:45:53;;;;;;;32.08;18.63;;;1.20;93.90;;;;;;5036076;28;20040;-76
2023/12/03 11:48:19;;;;;;;37.00;18.98;;;1.20;93.90;;;;;;5040786;28;20082;-76
2023/12/03 11:50:47;;;;;;;33.88;18.48;;;1.20;94.00;;;;;;5037121;28;20037;-75
2023/12/03 11:53:15;;;;;;;32.53;16.48;;;1.20;94.20;;;;;;5028191;28;20029;-75
2023/12/03 11:55:44;;;;;;;30.55;17.17;;;1.20;94.20;;;;;;5038424;28;20025;-76
2023/12/03 11:58:10;;;;;;;33.03;18.27;;;1.10;94.30;;;;;;5035175;28;20061;-76
2023/12/03 12:00:37;;;;;;;29.88;17.10;;;1.10;94.40;;;;;;5039409;28;20099;-75
2023/12/03 12:03:05;;;;;;;31.58;18.33;;;1.10;94.50;;;;;;5033812;28;20373;-76
2023/12/03 12:05:31;;;;;;;31.80;17.85;;;1.10;94.70;;;;;;5029285;28;20040;-74
2023/12/03 12:08:01;;;;;;;33.22;18.40;;;1.10;94.80;;;;;;5036728;28;20043;-76
2023/12/03 12:10:34;;;;;;;31.42;17.48;;;1.20;94.90;;;;;;5034920;28;20082;-76
2023/12/03 12:13:04;;;;;;;29.80;17.15;;;1.10;94.80;;;;;;5030372;28;21855;-76
2023/12/03 12:15:30;;;;;;;28.83;16.13;;;1.20;94.80;;;;;;5029770;28;20575;-76
2023/12/03 12:17:56;;;;;;;28.15;15.55;;;1.20;94.80;;;;;;5041465;28;20103;-75